Time;durP1;ratioP1;P1;durP2;ratioP2;P2;SDS_P1;SDS_P2;PMS_P1;PMS_P2;Temp;Humidity;BMP_temperature;BMP_pressure;BME280_temperature;BME280_humidity;BME280_pressure;Samples;Min_cycle;Max_cycle;Signal;HPM_P1;HPM_P2
2023/08/05 00:00:25;;;;;;;5.57;4.68;;;16.30;1.00;;;;;;4992567;28;20249;-96
2023/08/05 00:02:52;;;;;;;5.13;4.50;;;16.30;1.00;;;;;;4998366;28;20255;-96
2023/08/05 00:05:20;;;;;;;9.15;5.07;;;16.30;1.00;;;;;;4989497;28;20229;-96
2023/08/05 00:07:47;;;;;;;8.10;4.60;;;16.30;1.00;;;;;;4998929;28;20680;-96
2023/08/05 00:10:14;;;;;;;7.07;4.53;;;16.30;99.90;;;;;;5000095;28;20213;-96
2023/08/05 00:12:41;;;;;;;7.32;5.03;;;16.30;99.90;;;;;;4994683;28;20229;-96
2023/08/05 00:15:09;;;;;;;7.53;4.53;;;16.30;99.90;;;;;;4984653;28;20203;-96
2023/08/05 00:17:36;;;;;;;7.97;4.70;;;16.20;99.90;;;;;;5000147;28;20199;-96
2023/08/05 00:20:03;;;;;;;4.20;3.80;;;16.10;99.90;;;;;;5000131;28;20282;-96
2023/08/05 00:22:31;;;;;;;7.38;4.80;;;16.10;99.90;;;;;;5000513;28;20260;-96
2023/08/05 00:24:58;;;;;;;7.55;4.65;;;16.00;99.90;;;;;;5000780;28;20241;-95
2023/08/05 00:27:25;;;;;;;5.38;4.32;;;16.00;99.90;;;;;;5001460;28;20281;-94
2023/08/05 00:29:53;;;;;;;8.30;4.93;;;16.00;99.90;;;;;;4990489;28;20215;-96
2023/08/05 00:32:20;;;;;;;7.57;4.60;;;16.00;1.00;;;;;;4998470;28;20651;-96
2023/08/05 00:34:47;;;;;;;6.28;4.25;;;15.90;1.00;;;;;;4986984;28;20289;-96
2023/08/05 00:37:14;;;;;;;7.50;4.80;;;15.90;1.00;;;;;;5000088;28;20288;-95
2023/08/05 00:39:42;;;;;;;8.15;4.53;;;15.90;1.00;;;;;;4999209;28;20288;-96
2023/08/05 00:42:09;;;;;;;5.75;4.80;;;15.90;1.00;;;;;;4992149;28;20213;-95
2023/08/05 00:44:36;;;;;;;8.68;4.22;;;15.80;1.00;;;;;;4997976;28;20291;-96
2023/08/05 00:47:03;;;;;;;6.78;4.55;;;15.80;99.90;;;;;;4996198;28;20198;-95
2023/08/05 00:49:30;;;;;;;6.35;4.75;;;15.60;99.90;;;;;;4998412;28;20209;-96
2023/08/05 00:51:58;;;;;;;6.75;4.80;;;15.50;99.90;;;;;;4988746;28;20314;-96
2023/08/05 00:54:25;;;;;;;6.13;4.47;;;15.40;1.00;;;;;;4994107;28;20221;-95
2023/08/05 00:56:53;;;;;;;7.22;4.55;;;15.30;1.00;;;;;;4998898;28;20246;-96
2023/08/05 00:59:21;;;;;;;7.30;5.00;;;15.20;1.00;;;;;;5000634;28;20191;-96
2023/08/05 01:01:48;;;;;;;9.52;6.05;;;15.10;1.00;;;;;;4999168;28;20228;-95
2023/08/05 01:04:15;;;;;;;6.78;5.05;;;15.10;1.00;;;;;;4997285;28;20304;-96
2023/08/05 01:06:43;;;;;;;9.27;5.53;;;15.00;1.00;;;;;;5000411;28;20654;-95
2023/08/05 01:09:10;;;;;;;8.57;5.80;;;15.00;96.50;;;;;;5001493;28;20276;-96
2023/08/05 01:11:42;;;;;;;8.50;5.72;;;14.90;99.90;;;;;;4998483;28;20217;-96
2023/08/05 01:14:10;;;;;;;7.70;5.60;;;15.00;99.90;;;;;;5011593;28;20194;-96
2023/08/05 01:16:37;;;;;;;6.68;5.10;;;14.90;99.90;;;;;;5011897;28;20216;-96
2023/08/05 01:19:14;;;;;;;7.30;5.43;;;14.90;99.90;;;;;;5013979;28;20230;-96
2023/08/05 01:21:50;;;;;;;6.93;5.00;;;14.90;99.90;;;;;;5015606;28;20206;-96
2023/08/05 01:24:26;;;;;;;7.80;5.20;;;14.80;99.90;;;;;;5014642;28;20226;-95
2023/08/05 01:26:59;;;;;;;7.15;5.00;;;14.80;99.90;;;;;;4998983;28;20186;-96
2023/08/05 01:29:35;;;;;;;8.60;5.67;;;14.70;99.90;;;;;;4998313;28;20192;-96
2023/08/05 01:32:04;;;;;;;10.13;5.90;;;14.70;1.00;;;;;;5001933;28;20231;-96
2023/08/05 01:37:12;;;;;;;8.60;5.67;;;14.70;1.00;;;;;;5522691;23;20229;-96
2023/08/05 01:39:39;;;;;;;10.47;6.10;;;14.70;1.00;;;;;;5023310;28;20263;-96
2023/08/05 01:42:09;;;;;;;11.33;5.70;;;14.70;1.00;;;;;;5020267;28;20233;-96
2023/08/05 01:44:38;;;;;;;9.83;5.93;;;14.70;1.00;;;;;;5024700;28;20215;-96
2023/08/05 01:47:05;;;;;;;7.17;5.40;;;14.70;1.00;;;;;;5021973;28;20204;-96
2023/08/05 01:49:35;;;;;;;9.10;5.83;;;14.70;1.00;;;;;;5014300;28;20226;-96
2023/08/05 01:52:03;;;;;;;7.73;5.43;;;14.70;26.30;;;;;;5007400;28;20226;-96
2023/08/05 01:54:30;;;;;;;9.10;5.67;;;14.70;64.20;;;;;;5018092;28;20342;-96
2023/08/05 01:56:57;;;;;;;8.97;6.23;;;14.70;70.10;;;;;;5018644;28;20204;-96
2023/08/05 01:59:25;;;;;;;7.17;5.77;;;14.70;71.90;;;;;;5020607;28;20198;-96
2023/08/05 02:01:52;;;;;;;7.73;5.90;;;14.70;99.90;;;;;;5014107;28;20209;-96
2023/08/05 02:04:20;;;;;;;8.47;5.77;;;14.70;99.90;;;;;;5017762;28;20221;-96
2023/08/05 02:06:47;;;;;;;8.02;5.40;;;14.70;99.90;;;;;;5008747;28;20261;-96
2023/08/05 02:09:14;;;;;;;8.70;5.57;;;14.70;99.90;;;;;;5019061;28;20238;-96
2023/08/05 02:11:41;;;;;;;10.97;6.10;;;14.70;99.90;;;;;;5013626;28;20268;-96
2023/08/05 02:14:08;;;;;;;8.43;5.87;;;14.70;99.90;;;;;;5010133;28;20639;-96
2023/08/05 02:16:39;;;;;;;9.43;5.93;;;14.70;99.90;;;;;;5008139;28;20209;-96
2023/08/05 02:19:06;;;;;;;8.50;6.03;;;14.70;99.90;;;;;;5021686;28;20209;-96
2023/08/05 02:21:33;;;;;;;9.50;6.10;;;14.70;1.00;;;;;;5014943;28;20256;-96
2023/08/05 02:24:00;;;;;;;8.70;6.20;;;14.80;1.00;;;;;;5014375;28;20214;-96
2023/08/05 02:26:27;;;;;;;8.03;5.67;;;14.80;1.00;;;;;;5022568;28;20213;-96
2023/08/05 02:28:54;;;;;;;9.17;5.73;;;14.80;1.00;;;;;;5010158;28;20264;-96
2023/08/05 02:31:21;;;;;;;8.10;5.70;;;14.80;99.90;;;;;;5011504;28;20203;-96
2023/08/05 02:33:50;;;;;;;7.40;5.40;;;14.80;99.90;;;;;;5019246;28;20232;-96
2023/08/05 02:36:17;;;;;;;7.83;5.40;;;14.70;99.90;;;;;;5006856;28;20261;-96
2023/08/05 02:38:44;;;;;;;7.60;5.17;;;14.70;99.90;;;;;;5000996;28;20285;-96
2023/08/05 02:41:11;;;;;;;8.50;5.00;;;14.70;99.90;;;;;;5018269;28;20267;-96
2023/08/05 02:43:38;;;;;;;6.90;5.00;;;14.70;99.90;;;;;;5014344;28;20211;-96
2023/08/05 02:46:05;;;;;;;7.33;5.27;;;14.70;99.90;;;;;;5010039;28;20682;-95
2023/08/05 02:48:31;;;;;;;7.17;5.30;;;14.70;99.90;;;;;;5010095;28;20199;-96
2023/08/05 02:51:00;;;;;;;9.17;5.77;;;14.70;99.90;;;;;;5015910;28;20207;-96
2023/08/05 02:53:27;;;;;;;8.63;5.27;;;14.70;99.90;;;;;;5014313;28;20284;-96
2023/08/05 02:55:54;;;;;;;8.77;6.30;;;14.70;99.90;;;;;;5014142;28;20215;-96
2023/08/05 02:58:21;;;;;;;8.77;6.30;;;14.70;99.90;;;;;;5005137;28;20206;-96
2023/08/05 03:00:48;;;;;;;7.47;5.60;;;14.60;1.00;;;;;;5003000;28;20296;-96
2023/08/05 03:03:16;;;;;;;9.33;6.00;;;14.60;1.00;;;;;;5003181;28;20217;-96
2023/08/05 03:05:42;;;;;;;9.30;6.10;;;14.60;99.90;;;;;;5007028;28;20773;-96
2023/08/05 03:08:11;;;;;;;7.30;6.00;;;14.50;99.90;;;;;;5014552;28;20289;-96
2023/08/05 03:10:39;;;;;;;10.33;6.43;;;14.40;99.90;;;;;;5013828;28;20212;-96
2023/08/05 03:13:06;;;;;;;12.90;6.57;;;14.40;99.90;;;;;;5013412;28;20198;-96
2023/08/05 03:15:33;;;;;;;10.33;7.00;;;14.30;99.90;;;;;;5009462;28;20280;-96
2023/08/05 03:18:00;;;;;;;9.17;6.33;;;14.30;99.90;;;;;;5015116;28;20280;-96
2023/08/05 03:20:29;;;;;;;8.47;5.70;;;14.20;99.90;;;;;;5014045;28;20239;-96
2023/08/05 03:22:56;;;;;;;8.30;6.10;;;14.20;1.00;;;;;;5011303;28;20209;-96
2023/08/05 03:25:26;;;;;;;10.60;6.40;;;14.20;99.90;;;;;;4998985;28;20216;-95
2023/08/05 03:27:53;;;;;;;7.60;6.80;;;14.20;1.00;;;;;;5004040;28;20215;-95
2023/08/05 03:30:20;;;;;;;12.30;7.00;;;14.20;99.90;;;;;;5014626;28;20666;-94
2023/08/05 03:32:48;;;;;;;9.77;6.17;;;14.20;99.90;;;;;;5013635;28;20211;-96
2023/08/05 03:35:15;;;;;;;15.97;6.20;;;14.20;99.90;;;;;;5002440;28;20205;-96
2023/08/05 03:37:42;;;;;;;6.93;6.07;;;14.10;99.90;;;;;;5013788;28;20228;-96
2023/08/05 03:40:09;;;;;;;12.30;6.80;;;14.10;99.90;;;;;;5004549;28;20205;-95
2023/08/05 03:42:38;;;;;;;8.60;6.43;;;14.00;99.90;;;;;;5009744;28;20263;-95
2023/08/05 03:45:05;;;;;;;10.63;7.27;;;14.00;99.90;;;;;;5014559;28;20228;-94
2023/08/05 03:47:33;;;;;;;13.27;6.90;;;14.00;99.90;;;;;;5007129;28;20291;-95
2023/08/05 03:50:00;;;;;;;12.33;6.50;;;14.10;1.00;;;;;;5011324;28;20291;-95
2023/08/05 03:52:27;;;;;;;10.23;7.00;;;14.10;1.00;;;;;;5018051;28;20220;-96
2023/08/05 03:54:54;;;;;;;8.77;6.93;;;14.20;1.00;;;;;;5007006;28;20233;-95
2023/08/05 03:57:21;;;;;;;9.10;7.20;;;14.40;1.00;;;;;;5006911;28;20205;-95
2023/08/05 03:59:49;;;;;;;9.63;6.07;;;14.60;99.90;;;;;;5010739;28;20635;-95
2023/08/05 04:02:16;;;;;;;9.30;6.73;;;14.90;99.90;;;;;;5010120;28;20262;-95
2023/08/05 04:04:43;;;;;;;8.27;6.20;;;15.20;1.00;;;;;;5012185;28;20208;-95
2023/08/05 04:07:10;;;;;;;9.30;5.50;;;15.40;1.00;;;;;;5017443;28;20680;-96
2023/08/05 04:09:38;;;;;;;9.23;6.03;;;15.60;99.90;;;;;;5006869;28;20208;-95
2023/08/05 04:12:08;;;;;;;7.35;5.47;;;15.80;99.90;;;;;;5006991;28;20205;-96
2023/08/05 04:14:37;;;;;;;7.80;5.23;;;16.00;51.90;;;;;;5011231;28;20201;-96
2023/08/05 04:17:05;;;;;;;7.15;4.72;;;16.30;1.00;;;;;;5015251;28;20290;-95
2023/08/05 04:19:32;;;;;;;9.38;5.30;;;16.50;99.90;;;;;;5017324;28;20228;-96
2023/08/05 04:22:01;;;;;;;8.02;5.53;;;16.60;21.00;;;;;;5012477;28;20211;-96
2023/08/05 04:24:29;;;;;;;6.53;5.30;;;16.80;1.00;;;;;;5001681;28;20245;-96
2023/08/05 04:26:56;;;;;;;7.55;5.20;;;17.10;1.00;;;;;;5006942;28;20202;-95
2023/08/05 04:29:23;;;;;;;6.00;5.20;;;17.50;1.00;;;;;;5007663;28;20194;-96
2023/08/05 04:31:51;;;;;;;7.00;4.82;;;17.90;99.90;;;;;;5012496;28;20294;-96
2023/08/05 04:34:19;;;;;;;10.48;5.18;;;18.30;1.00;;;;;;5015216;28;20289;-95
2023/08/05 04:36:48;;;;;;;8.07;5.13;;;18.70;99.90;;;;;;5003090;28;20232;-96
2023/08/05 04:39:17;;;;;;;7.00;5.05;;;18.80;1.00;;;;;;5000111;28;20202;-96
2023/08/05 04:41:44;;;;;;;8.77;5.03;;;18.90;1.00;;;;;;5009633;28;20224;-95
2023/08/05 04:44:11;;;;;;;6.05;5.13;;;18.80;99.90;;;;;;5006949;28;20254;-96
2023/08/05 04:46:38;;;;;;;7.10;5.05;;;18.70;99.90;;;;;;5011216;28;20312;-95
2023/08/05 04:49:07;;;;;;;8.63;5.90;;;18.60;99.90;;;;;;5017473;28;20237;-95
2023/08/05 04:51:35;;;;;;;7.85;5.72;;;18.70;99.90;;;;;;5014178;28;20241;-96
2023/08/05 04:54:02;;;;;;;6.28;5.38;;;18.90;99.90;;;;;;5001113;28;20199;-95
2023/08/05 04:56:29;;;;;;;6.18;5.10;;;19.10;99.90;;;;;;5009195;28;20194;-96
2023/08/05 04:58:56;;;;;;;7.43;4.78;;;19.30;1.00;;;;;;5013633;28;20213;-96
2023/08/05 05:01:23;;;;;;;10.27;4.88;;;19.30;1.00;;;;;;5013110;28;20208;-96
2023/08/05 05:03:51;;;;;;;6.20;4.28;;;19.20;1.00;;;;;;5013499;28;20194;-96
2023/08/05 05:06:18;;;;;;;9.55;4.75;;;19.10;1.00;;;;;;5010723;28;20227;-96
2023/08/05 05:08:46;;;;;;;6.38;5.07;;;18.90;1.00;;;;;;5002251;28;20285;-96
2023/08/05 05:11:13;;;;;;;6.15;4.45;;;18.90;1.00;;;;;;5014028;28;20285;-95
2023/08/05 05:13:43;;;;;;;7.22;4.30;;;18.90;1.00;;;;;;5006263;28;20203;-95
2023/08/05 05:16:10;;;;;;;6.10;4.13;;;18.90;1.00;;;;;;5007140;28;20213;-96
2023/08/05 05:18:37;;;;;;;5.30;4.32;;;18.90;1.00;;;;;;5006035;28;20281;-96
2023/08/05 05:21:04;;;;;;;7.63;4.22;;;18.90;1.00;;;;;;5011118;28;20651;-95
2023/08/05 05:23:31;;;;;;;7.15;4.25;;;18.90;33.50;;;;;;5016346;28;20202;-95
2023/08/05 05:25:59;;;;;;;6.80;4.63;;;19.00;91.30;;;;;;5008598;28;20218;-95
2023/08/05 05:28:26;;;;;;;7.00;4.50;;;19.00;32.60;;;;;;5008508;28;20284;-95
2023/08/05 05:30:52;;;;;;;8.45;5.38;;;19.00;1.00;;;;;;5015742;28;20214;-95
2023/08/05 05:33:19;;;;;;;7.57;4.65;;;19.00;8.30;;;;;;5001758;28;20205;-95
2023/08/05 05:35:46;;;;;;;9.77;5.90;;;18.90;99.90;;;;;;5006813;28;20205;-95
2023/08/05 05:38:13;;;;;;;10.27;6.35;;;18.90;99.90;;;;;;5014359;28;20206;-96
2023/08/05 05:40:41;;;;;;;9.55;6.85;;;18.90;99.90;;;;;;5010409;28;20285;-95
2023/08/05 05:43:09;;;;;;;13.68;7.43;;;19.00;99.90;;;;;;5002308;28;20202;-96
2023/08/05 05:45:36;;;;;;;14.65;7.57;;;19.00;99.90;;;;;;5010987;28;20588;-96
2023/08/05 05:48:03;;;;;;;12.15;7.25;;;18.90;99.90;;;;;;5005952;28;20195;-96
2023/08/05 05:50:30;;;;;;;11.35;7.05;;;18.90;99.90;;;;;;5006837;28;20655;-96
2023/08/05 05:52:57;;;;;;;9.82;6.60;;;19.00;1.00;;;;;;5012845;28;20277;-96
2023/08/05 05:55:24;;;;;;;10.18;6.80;;;19.10;99.90;;;;;;5018092;28;20224;-96
2023/08/05 05:57:50;;;;;;;8.82;6.30;;;19.30;99.90;;;;;;5007051;28;20205;-96
2023/08/05 06:00:19;;;;;;;10.07;6.90;;;19.40;99.90;;;;;;5004244;28;20206;-96
2023/08/05 06:02:46;;;;;;;9.07;6.70;;;19.50;99.90;;;;;;5010131;28;20239;-95
2023/08/05 06:05:17;;;;;;;11.55;6.30;;;19.50;1.00;;;;;;5006348;28;20217;-96
2023/08/05 06:07:44;;;;;;;9.70;5.95;;;19.70;1.90;;;;;;5016707;28;20202;-96
2023/08/05 06:10:11;;;;;;;8.13;5.82;;;19.80;1.00;;;;;;5007441;28;20204;-96
2023/08/05 06:12:38;;;;;;;8.85;5.60;;;20.00;1.00;;;;;;5007433;28;20209;-96
2023/08/05 06:15:07;;;;;;;11.75;6.28;;;20.20;99.90;;;;;;5011104;28;20194;-96
2023/08/05 06:17:36;;;;;;;9.57;5.90;;;20.50;99.90;;;;;;5019785;28;20334;-96
2023/08/05 06:20:04;;;;;;;8.50;5.15;;;20.80;99.90;;;;;;5015722;28;20223;-96
2023/08/05 06:22:31;;;;;;;8.48;4.38;;;21.00;1.00;;;;;;5007313;28;20203;-96
2023/08/05 06:24:58;;;;;;;6.65;4.57;;;21.20;1.00;;;;;;5008536;28;20245;-96
2023/08/05 06:27:24;;;;;;;5.95;3.78;;;21.30;1.00;;;;;;5020049;28;20205;-96
2023/08/05 06:29:52;;;;;;;9.40;4.40;;;21.50;99.90;;;;;;5006789;28;20282;-96
2023/08/05 06:32:19;;;;;;;6.65;4.30;;;21.50;99.90;;;;;;5017331;28;20222;-96
2023/08/05 06:34:49;;;;;;;7.40;4.43;;;21.60;99.90;;;;;;5011329;28;20229;-96
2023/08/05 06:37:16;;;;;;;6.88;4.40;;;21.60;99.90;;;;;;5005530;28;20297;-96
2023/08/05 06:39:43;;;;;;;7.32;4.07;;;21.80;99.90;;;;;;5017504;28;20230;-96
2023/08/05 06:42:10;;;;;;;6.05;4.50;;;21.80;99.90;;;;;;5017247;28;20206;-96
2023/08/05 06:44:37;;;;;;;6.03;4.47;;;21.90;99.90;;;;;;5009147;28;20209;-96
2023/08/05 06:47:05;;;;;;;6.65;4.75;;;22.00;87.20;;;;;;5013216;28;20289;-96
2023/08/05 06:49:34;;;;;;;8.82;5.35;;;22.00;19.50;;;;;;5021570;28;20201;-96
2023/08/05 06:52:04;;;;;;;8.73;5.50;;;22.00;1.00;;;;;;5003331;28;20257;-96
2023/08/05 06:54:31;;;;;;;10.23;5.10;;;22.10;1.00;;;;;;5010237;28;20202;-96
2023/08/05 06:56:58;;;;;;;8.70;5.65;;;22.10;1.00;;;;;;5021187;28;20190;-96
2023/08/05 06:59:26;;;;;;;9.98;5.90;;;22.10;1.00;;;;;;5012517;28;20222;-96
2023/08/05 07:01:54;;;;;;;8.85;5.88;;;22.10;1.00;;;;;;5022384;28;20195;-96
2023/08/05 07:04:23;;;;;;;8.32;5.90;;;22.10;1.00;;;;;;5030206;28;20209;-96
2023/08/05 07:06:51;;;;;;;11.05;6.00;;;22.10;1.00;;;;;;5021831;28;20265;-96
2023/08/05 07:09:25;;;;;;;8.98;5.60;;;22.10;1.00;;;;;;5033567;28;20209;-96
2023/08/05 07:11:59;;;;;;;6.38;4.63;;;22.10;1.00;;;;;;5034043;28;20198;-96
2023/08/05 07:14:38;;;;;;;8.35;5.00;;;22.10;1.00;;;;;;5032580;28;20198;-96
2023/08/05 07:17:09;;;;;;;8.07;4.78;;;22.10;1.00;;;;;;5027060;28;20313;-96
2023/08/05 07:19:36;;;;;;;7.82;4.97;;;22.00;1.00;;;;;;5005672;28;20191;-96
2023/08/05 07:22:03;;;;;;;7.40;4.15;;;22.00;1.00;;;;;;5001120;28;20195;-95
2023/08/05 07:24:31;;;;;;;5.47;3.95;;;21.90;1.00;;;;;;5005962;28;20270;-96
2023/08/05 07:26:58;;;;;;;4.50;3.70;;;21.90;1.00;;;;;;5005024;28;20221;-96
2023/08/05 07:29:25;;;;;;;6.60;3.90;;;21.90;1.00;;;;;;5012886;28;20196;-96
2023/08/05 07:31:52;;;;;;;5.68;3.45;;;21.90;1.00;;;;;;5003238;28;20253;-96
2023/08/05 07:34:19;;;;;;;6.85;3.63;;;21.90;1.00;;;;;;5016514;28;20226;-96
2023/08/05 07:36:46;;;;;;;6.72;4.30;;;21.90;1.00;;;;;;5024755;28;20237;-96
2023/08/05 07:39:13;;;;;;;6.70;4.00;;;21.90;1.00;;;;;;5011933;28;20659;-96
2023/08/05 07:41:41;;;;;;;9.80;4.50;;;22.00;1.00;;;;;;5013786;28;20195;-96
2023/08/05 07:44:09;;;;;;;6.68;4.20;;;22.20;1.00;;;;;;5007300;28;20231;-96
2023/08/05 07:46:37;;;;;;;6.35;4.45;;;22.30;1.00;;;;;;5007556;28;20222;-96
2023/08/05 07:49:04;;;;;;;8.35;4.47;;;22.50;1.00;;;;;;5010194;28;20221;-96
2023/08/05 07:51:31;;;;;;;7.40;4.03;;;22.70;1.00;;;;;;5021299;28;20204;-96
2023/08/05 07:53:59;;;;;;;6.72;4.07;;;22.90;1.00;;;;;;5013140;28;20225;-96
2023/08/05 07:56:26;;;;;;;6.30;4.07;;;23.10;1.00;;;;;;5007551;28;20261;-96
2023/08/05 07:58:54;;;;;;;6.75;4.00;;;23.40;1.00;;;;;;5015262;28;20202;-96
2023/08/05 08:01:22;;;;;;;6.63;3.75;;;23.60;1.00;;;;;;5005380;28;20190;-95
2023/08/05 08:03:51;;;;;;;6.05;3.92;;;23.90;1.00;;;;;;5004868;28;20202;-95
2023/08/05 08:06:19;;;;;;;6.20;3.75;;;24.10;1.00;;;;;;5005582;28;20225;-95
2023/08/05 08:08:46;;;;;;;5.22;3.50;;;24.20;1.00;;;;;;5012691;28;20230;-94
2023/08/05 08:11:13;;;;;;;4.32;3.20;;;24.50;1.00;;;;;;5007880;28;20302;-95
2023/08/05 08:13:41;;;;;;;5.72;3.20;;;24.60;99.90;;;;;;5003009;28;20252;-95
2023/08/05 08:16:09;;;;;;;4.88;3.47;;;24.60;99.90;;;;;;5000320;28;20199;-95
2023/08/05 08:18:36;;;;;;;5.07;3.53;;;24.60;99.90;;;;;;5001550;28;20229;-94
2023/08/05 08:21:03;;;;;;;7.63;3.65;;;24.70;99.90;;;;;;5012422;28;20202;-94
2023/08/05 08:23:30;;;;;;;5.40;3.45;;;24.80;99.90;;;;;;5016880;28;20206;-93
2023/08/05 08:25:58;;;;;;;5.82;3.15;;;25.00;99.90;;;;;;5014627;28;20218;-95
2023/08/05 08:28:25;;;;;;;5.25;2.80;;;25.10;99.90;;;;;;5005790;28;20199;-94
2023/08/05 08:30:54;;;;;;;5.65;3.38;;;25.10;99.90;;;;;;5011834;28;20285;-95
2023/08/05 08:33:22;;;;;;;4.28;3.30;;;25.10;99.90;;;;;;5010960;28;20230;-94
2023/08/05 08:35:50;;;;;;;5.55;3.10;;;25.10;99.90;;;;;;5016891;28;20194;-93
2023/08/05 08:38:16;;;;;;;3.30;3.00;;;25.20;99.90;;;;;;5008282;28;20222;-94
2023/08/05 08:40:47;;;;;;;4.68;3.10;;;25.30;99.90;;;;;;5014862;28;20274;-95
2023/08/05 08:43:17;;;;;;;7.82;3.50;;;25.40;99.90;;;;;;5007829;28;20190;-94
2023/08/05 08:45:45;;;;;;;5.95;3.08;;;25.50;99.90;;;;;;5004521;28;20233;-94
2023/08/05 08:48:13;;;;;;;4.43;2.88;;;25.70;99.90;;;;;;5010333;28;20212;-95
2023/08/05 08:50:44;;;;;;;4.72;2.22;;;25.80;99.90;;;;;;5004106;28;20203;-95
2023/08/05 08:53:13;;;;;;;4.60;3.03;;;26.00;99.90;;;;;;5001530;28;20199;-93
2023/08/05 08:55:41;;;;;;;5.85;2.92;;;26.20;99.90;;;;;;5003061;28;20269;-93
2023/08/05 08:58:08;;;;;;;4.80;2.55;;;26.30;99.90;;;;;;5013327;28;20623;-93
2023/08/05 09:00:36;;;;;;;13.15;3.90;;;26.50;99.90;;;;;;4999864;28;20205;-93
2023/08/05 09:03:04;;;;;;;7.25;2.70;;;26.60;99.90;;;;;;5000476;28;20565;-95
2023/08/05 09:05:35;;;;;;;5.53;3.15;;;26.70;99.90;;;;;;5005439;28;20199;-93
2023/08/05 09:08:04;;;;;;;6.00;2.67;;;26.80;99.90;;;;;;5004924;28;20202;-94
2023/08/05 09:10:31;;;;;;;5.00;2.70;;;26.60;99.90;;;;;;5005633;28;20210;-91
2023/08/05 09:13:00;;;;;;;3.97;2.72;;;26.40;99.90;;;;;;5003203;28;20678;-92
2023/08/05 09:15:32;;;;;;;4.32;2.40;;;26.20;99.90;;;;;;5010280;28;20234;-93
2023/08/05 09:17:59;;;;;;;3.08;2.20;;;26.10;99.90;;;;;;5005451;28;20198;-92
2023/08/05 09:20:27;;;;;;;5.18;2.50;;;26.10;99.90;;;;;;5006956;28;20209;-94
2023/08/05 09:22:55;;;;;;;3.92;2.53;;;26.20;99.90;;;;;;5004634;28;20234;-93
2023/08/05 09:25:24;;;;;;;3.05;2.35;;;26.30;99.90;;;;;;5002986;28;20203;-93
2023/08/05 09:27:52;;;;;;;5.03;2.50;;;26.30;99.90;;;;;;5010116;28;20195;-93
2023/08/05 09:30:21;;;;;;;4.22;2.60;;;26.40;99.90;;;;;;5004059;28;20714;-93
2023/08/05 09:32:48;;;;;;;3.15;2.38;;;26.50;99.90;;;;;;5016223;28;20225;-92
2023/08/05 09:35:15;;;;;;;4.18;2.30;;;26.80;99.90;;;;;;5011924;28;20578;-93
2023/08/05 09:37:46;;;;;;;2.97;2.30;;;27.10;99.90;;;;;;5010035;28;20633;-93
2023/08/05 09:40:18;;;;;;;5.07;2.70;;;27.40;99.90;;;;;;5004824;28;20202;-94
2023/08/05 09:42:49;;;;;;;2.67;2.17;;;27.70;99.90;;;;;;5014573;28;20288;-92
2023/08/05 09:45:17;;;;;;;4.07;2.40;;;27.90;99.90;;;;;;5001385;28;20282;-92
2023/08/05 09:47:47;;;;;;;3.58;2.47;;;27.80;99.90;;;;;;5010893;28;20226;-94
2023/08/05 09:50:15;;;;;;;2.97;2.10;;;27.60;99.90;;;;;;5003817;28;20199;-94
2023/08/05 09:52:43;;;;;;;3.25;2.40;;;27.40;99.90;;;;;;5007478;28;20212;-92
2023/08/05 09:55:13;;;;;;;3.25;2.05;;;27.40;99.90;;;;;;5005866;28;20202;-93
2023/08/05 09:57:41;;;;;;;3.75;2.17;;;27.40;99.90;;;;;;5005246;28;20194;-92
2023/08/05 10:00:14;;;;;;;2.53;2.30;;;27.40;99.90;;;;;;5005301;28;20656;-92
2023/08/05 10:02:41;;;;;;;4.68;2.10;;;27.50;99.90;;;;;;5009879;28;20202;-92
2023/08/05 10:05:10;;;;;;;3.15;2.15;;;27.60;99.90;;;;;;5015578;28;20208;-93
2023/08/05 10:07:39;;;;;;;3.15;1.98;;;27.70;99.90;;;;;;5003119;28;20223;-92
2023/08/05 10:10:09;;;;;;;3.38;2.30;;;27.70;99.90;;;;;;5004549;28;20206;-93
2023/08/05 10:12:39;;;;;;;4.15;2.30;;;27.80;99.90;;;;;;5006903;28;20293;-93
2023/08/05 10:15:11;;;;;;;2.72;2.08;;;27.90;99.90;;;;;;5005417;28;20226;-93
2023/08/05 10:17:39;;;;;;;4.97;2.50;;;27.90;99.90;;;;;;5008238;28;20202;-93
2023/08/05 10:20:08;;;;;;;3.05;2.38;;;28.10;99.90;;;;;;5011907;28;20206;-93
2023/08/05 10:22:38;;;;;;;2.45;2.20;;;28.20;99.90;;;;;;5010709;28;20288;-94
2023/08/05 10:25:05;;;;;;;5.22;2.53;;;28.40;99.90;;;;;;5015038;28;20210;-94
2023/08/05 10:27:36;;;;;;;3.60;2.15;;;28.40;99.90;;;;;;5009786;28;20578;-93
2023/08/05 10:30:10;;;;;;;4.88;2.20;;;28.40;99.90;;;;;;5000616;28;20202;-95
2023/08/05 10:32:49;;;;;;;2.40;2.20;;;28.30;99.90;;;;;;5007924;28;20219;-93
2023/08/05 10:35:29;;;;;;;3.45;2.30;;;28.10;99.90;;;;;;5011377;28;20209;-94
2023/08/05 10:38:10;;;;;;;3.13;2.40;;;27.90;99.90;;;;;;5009065;28;20233;-95
2023/08/05 10:40:42;;;;;;;4.50;2.80;;;27.70;99.90;;;;;;5008055;28;20646;-95
2023/08/05 10:43:10;;;;;;;10.90;3.00;;;27.50;99.90;;;;;;5014796;28;20204;-94
2023/08/05 10:45:41;;;;;;;3.95;2.67;;;27.30;99.90;;;;;;5005490;28;20198;-94
2023/08/05 10:48:10;;;;;;;6.00;3.00;;;27.10;99.90;;;;;;5015364;28;20229;-94
2023/08/05 10:50:39;;;;;;;3.10;2.80;;;26.90;99.90;;;;;;5015657;28;20199;-95
2023/08/05 10:53:08;;;;;;;4.97;3.03;;;26.80;99.90;;;;;;5012701;28;20289;-94
2023/08/05 10:55:46;;;;;;;4.50;2.97;;;26.60;99.90;;;;;;5008405;28;20304;-95
2023/08/05 10:58:14;;;;;;;4.57;2.80;;;26.50;99.90;;;;;;5005228;28;20229;-94
2023/08/05 11:00:44;;;;;;;3.50;2.80;;;26.30;99.90;;;;;;5016703;28;20202;-94
2023/08/05 11:03:25;;;;;;;4.18;2.70;;;26.30;99.90;;;;;;5011358;28;20214;-93
2023/08/05 11:05:56;;;;;;;3.20;2.90;;;26.30;99.90;;;;;;5000346;28;20209;-95
2023/08/05 11:08:23;;;;;;;4.90;2.90;;;26.10;99.90;;;;;;5017628;28;20734;-94
2023/08/05 11:10:50;;;;;;;4.38;2.70;;;26.10;99.90;;;;;;5009009;28;20291;-93
2023/08/05 11:13:19;;;;;;;3.88;2.58;;;26.00;99.90;;;;;;5010414;28;20233;-94
2023/08/05 11:16:03;;;;;;;5.43;2.75;;;25.90;99.90;;;;;;5013057;28;20202;-94
2023/08/05 11:18:30;;;;;;;5.15;2.70;;;25.80;99.90;;;;;;5003362;28;20190;-94
2023/08/05 11:20:59;;;;;;;2.90;2.60;;;25.70;99.90;;;;;;5004275;28;20230;-95
2023/08/05 11:23:26;;;;;;;3.83;2.70;;;25.60;99.90;;;;;;5017866;28;20736;-93
2023/08/05 11:25:53;;;;;;;3.08;2.60;;;25.60;99.90;;;;;;5019284;28;20228;-94
2023/08/05 11:28:21;;;;;;;3.53;2.70;;;25.70;99.90;;;;;;5014788;28;20585;-94
2023/08/05 11:30:48;;;;;;;3.60;2.55;;;25.70;99.90;;;;;;5012935;28;20214;-94
2023/08/05 11:33:16;;;;;;;3.65;2.60;;;25.70;99.90;;;;;;5010731;28;20277;-94
2023/08/05 11:35:45;;;;;;;2.85;2.50;;;25.80;99.90;;;;;;5018931;28;20213;-93
2023/08/05 11:38:12;;;;;;;3.78;2.63;;;25.90;99.90;;;;;;5016246;28;20221;-93
2023/08/05 11:40:43;;;;;;;3.38;2.40;;;25.90;99.90;;;;;;5014170;28;20205;-94
2023/08/05 11:43:11;;;;;;;4.43;2.30;;;25.80;99.90;;;;;;5018397;28;20216;-95
2023/08/05 11:45:40;;;;;;;2.85;2.40;;;25.60;99.90;;;;;;5008057;28;20561;-94
2023/08/05 11:48:07;;;;;;;3.85;2.50;;;25.50;99.90;;;;;;5018332;28;20229;-93
2023/08/05 11:50:36;;;;;;;3.35;2.35;;;25.40;99.90;;;;;;5012073;28;20281;-93
2023/08/05 11:53:04;;;;;;;3.67;2.45;;;25.20;99.90;;;;;;5011487;28;20258;-93
2023/08/05 11:55:34;;;;;;;3.85;2.40;;;25.10;99.90;;;;;;5017468;28;20198;-94
2023/08/05 11:58:03;;;;;;;2.63;2.20;;;25.00;99.90;;;;;;5007923;28;20268;-93
2023/08/05 12:00:30;;;;;;;3.25;2.60;;;24.80;99.90;;;;;;5007200;28;20206;-94
2023/08/05 12:02:57;;;;;;;6.57;5.70;;;24.60;99.90;;;;;;4998352;28;20670;-93
2023/08/05 12:05:24;;;;;;;5.47;3.55;;;24.50;99.90;;;;;;5007079;28;20236;-93
2023/08/05 12:07:52;;;;;;;3.80;3.17;;;24.40;99.90;;;;;;5003750;28;20310;-92
2023/08/05 12:10:20;;;;;;;4.60;2.50;;;24.20;99.90;;;;;;5007711;28;20198;-93
2023/08/05 12:12:49;;;;;;;4.05;2.50;;;24.10;99.90;;;;;;5011555;28;20209;-92
2023/08/05 12:15:17;;;;;;;3.05;2.60;;;24.00;99.90;;;;;;5012283;28;20222;-92
2023/08/05 12:17:48;;;;;;;4.43;2.35;;;23.90;99.90;;;;;;5010688;28;20671;-93
2023/08/05 12:20:18;;;;;;;2.58;2.35;;;23.80;99.90;;;;;;4999157;28;20230;-93
2023/08/05 12:22:45;;;;;;;3.95;2.38;;;23.80;99.90;;;;;;5011585;28;20202;-94
2023/08/05 12:25:14;;;;;;;3.08;2.47;;;23.60;99.90;;;;;;5017389;28;20204;-94
2023/08/05 12:27:41;;;;;;;3.17;2.47;;;23.50;99.90;;;;;;5007205;28;20222;-94
2023/08/05 12:30:10;;;;;;;3.97;2.78;;;23.40;99.90;;;;;;5002836;28;20202;-94
2023/08/05 12:32:37;;;;;;;3.60;2.40;;;23.40;99.90;;;;;;4999054;28;20254;-93
2023/08/05 12:35:04;;;;;;;5.28;2.55;;;23.40;99.90;;;;;;5011133;28;20229;-93
2023/08/05 12:37:33;;;;;;;10.70;2.80;;;23.30;99.90;;;;;;5005320;28;20305;-95
2023/08/05 12:40:00;;;;;;;4.93;2.97;;;23.20;99.90;;;;;;5004674;28;20659;-94
2023/08/05 12:42:28;;;;;;;2.75;2.30;;;23.30;99.90;;;;;;5017282;28;20304;-94
2023/08/05 12:44:55;;;;;;;4.30;3.22;;;23.20;99.90;;;;;;5017533;28;20206;-96
2023/08/05 12:47:22;;;;;;;16.08;4.13;;;23.20;99.90;;;;;;5016534;28;20713;-93
2023/08/05 12:49:49;;;;;;;8.95;3.97;;;23.10;99.90;;;;;;5011372;28;20203;-92
2023/08/05 12:52:15;;;;;;;6.03;3.25;;;23.00;99.90;;;;;;5007237;28;20198;-94
2023/08/05 12:54:42;;;;;;;5.95;2.67;;;23.00;99.90;;;;;;5012418;28;20218;-93